Time;durP1;ratioP1;P1;durP2;ratioP2;P2;SDS_P1;SDS_P2;PMS_P1;PMS_P2;Temp;Humidity;BMP_temperature;BMP_pressure;BME280_temperature;BME280_humidity;BME280_pressure;Samples;Min_cycle;Max_cycle;Signal;HPM_P1;HPM_P2
2023/05/13 00:08:14;;;;;;;1.42;1.33;;;;;;;19.03;59.15;101831.28;20908105;28;20076;-64
2023/05/13 00:18:16;;;;;;;1.48;1.38;;;;;;;19.10;59.27;101845.16;20907332;28;20541;-64
2023/05/13 00:28:18;;;;;;;1.70;1.58;;;;;;;19.08;59.01;101834.47;20898267;28;20053;-64
2023/05/13 00:38:19;;;;;;;1.60;1.50;;;;;;;19.08;58.91;101839.00;20906229;28;20060;-64
2023/05/13 00:48:21;;;;;;;1.73;1.60;;;;;;;19.06;58.70;101838.28;20903830;28;20127;-64
2023/05/13 00:58:23;;;;;;;2.40;1.90;;;;;;;19.04;58.79;101843.78;20902402;28;20459;-64
2023/05/13 01:08:36;;;;;;;2.03;1.65;;;;;;;19.03;58.71;101841.22;20904409;28;20057;-64
2023/05/13 01:18:43;;;;;;;1.60;1.50;;;;;;;19.01;58.58;101837.78;20885666;28;20045;-64
2023/05/13 01:28:45;;;;;;;1.70;1.60;;;;;;;19.00;58.52;101839.63;20888758;28;20060;-64
2023/05/13 01:38:47;;;;;;;1.90;1.70;;;;;;;18.99;58.41;101835.19;20883899;28;20049;-64
2023/05/13 01:48:50;;;;;;;1.95;1.80;;;;;;;18.94;58.62;101837.38;20883459;28;20080;-64
2023/05/13 01:58:52;;;;;;;1.90;1.60;;;;;;;18.96;58.32;101844.34;20898868;28;20047;-64
2023/05/13 02:08:54;;;;;;;1.80;1.70;;;;;;;18.94;58.47;101840.91;20882636;28;20053;-64
2023/05/13 02:18:55;;;;;;;2.10;1.90;;;;;;;18.95;58.23;101853.41;20898478;28;20099;-64
2023/05/13 02:29:02;;;;;;;3.00;1.65;;;;;;;18.95;58.18;101847.19;20882298;28;20052;-64
2023/05/13 02:39:03;;;;;;;1.92;1.73;;;;;;;18.94;58.25;101849.00;20898121;28;20812;-64
2023/05/13 02:49:05;;;;;;;2.00;1.80;;;;;;;18.93;58.05;101849.13;20896648;28;20041;-64
2023/05/13 02:59:07;;;;;;;1.65;1.55;;;;;;;18.92;58.13;101845.56;20897612;28;20055;-64
2023/05/13 03:09:09;;;;;;;2.13;1.92;;;;;;;18.86;58.03;101832.56;20897119;28;20394;-64
2023/05/13 03:19:10;;;;;;;2.33;1.90;;;;;;;18.90;58.11;101842.13;20907430;28;20128;-64
2023/05/13 03:29:12;;;;;;;1.60;1.50;;;;;;;18.90;57.67;101836.72;20900373;28;20045;-64
2023/05/13 03:39:15;;;;;;;1.90;1.80;;;;;;;18.88;57.87;101829.75;20909614;28;20145;-64
2023/05/13 03:49:17;;;;;;;1.80;1.50;;;;;;;18.87;57.49;101836.97;20892649;28;20409;-64
2023/05/13 03:59:20;;;;;;;1.80;1.65;;;;;;;18.85;57.56;101838.94;20908385;28;20460;-64
2023/05/13 04:09:22;;;;;;;1.92;1.70;;;;;;;18.84;57.50;101845.31;20907229;28;20452;-64
2023/05/13 04:19:23;;;;;;;1.77;1.67;;;;;;;18.83;57.74;101849.00;20906752;28;20045;-64
2023/05/13 04:29:27;;;;;;;2.10;1.88;;;;;;;18.83;57.69;101865.19;20890309;28;20053;-64
2023/05/13 04:39:28;;;;;;;1.70;1.60;;;;;;;18.82;57.71;101868.84;20906299;28;20136;-64
2023/05/13 04:49:30;;;;;;;2.10;1.90;;;;;;;18.77;57.73;101865.66;20887760;28;20106;-64
2023/05/13 04:59:34;;;;;;;2.60;1.85;;;;;;;18.80;57.83;101879.78;20903153;28;20529;-64
2023/05/13 05:09:35;;;;;;;1.70;1.60;;;;;;;18.82;57.65;101898.53;20902428;28;20409;-64
2023/05/13 05:19:37;;;;;;;2.17;1.98;;;;;;;18.82;57.90;101903.94;20900899;28;20476;-64
2023/05/13 05:29:39;;;;;;;1.90;1.80;;;;;;;18.81;57.77;101908.47;20894487;28;20052;-64
2023/05/13 05:39:41;;;;;;;2.10;1.80;;;;;;;18.82;57.83;101914.72;20901172;28;20045;-64
2023/05/13 05:49:43;;;;;;;2.25;2.05;;;;;;;18.82;57.89;101915.59;20901688;28;20056;-64
2023/05/13 05:59:45;;;;;;;2.38;2.10;;;;;;;18.84;58.00;101918.16;20899657;28;20098;-64
2023/05/13 06:09:47;;;;;;;2.75;1.73;;;;;;;18.87;58.09;101922.47;20898333;28;20053;-64
2023/05/13 06:19:49;;;;;;;1.73;1.60;;;;;;;18.87;58.03;101922.47;20886117;28;20050;-64
2023/05/13 06:29:52;;;;;;;1.85;1.48;;;;;;;18.87;58.19;101923.31;20898542;28;20045;-64
2023/05/13 06:39:54;;;;;;;1.90;1.77;;;;;;;18.90;58.21;101922.22;20897619;28;20057;-64
2023/05/13 06:49:56;;;;;;;3.05;1.85;;;;;;;18.96;58.19;101922.59;20885821;28;20044;-64
2023/05/13 06:59:58;;;;;;;2.17;1.90;;;;;;;19.03;58.18;101932.97;20914457;28;20053;-64
2023/05/13 07:10:00;;;;;;;2.25;1.58;;;;;;;19.09;58.36;101932.50;20913256;28;20049;-64
2023/05/13 07:20:01;;;;;;;2.00;1.80;;;;;;;19.12;58.45;101940.34;20896776;28;20041;-64
2023/05/13 07:30:03;;;;;;;2.08;1.88;;;;;;;19.19;58.66;101928.09;20910444;28;20045;-64
2023/05/13 07:40:05;;;;;;;2.90;2.00;;;;;;;19.26;58.64;101926.63;20894305;28;20053;-64
2023/05/13 07:50:07;;;;;;;2.35;1.80;;;;;;;19.28;58.57;101919.28;20908720;28;20052;-64
2023/05/13 08:00:09;;;;;;;1.77;1.63;;;;;;;19.45;58.67;101936.00;20908671;28;20041;-64
2023/05/13 08:10:13;;;;;;;2.42;2.00;;;;;;;19.55;58.98;101926.19;20907531;28;20501;-64
2023/05/13 08:20:15;;;;;;;1.85;1.73;;;;;;;19.65;58.51;101928.13;20897248;28;20049;-64
2023/05/13 08:30:17;;;;;;;1.60;1.48;;;;;;;19.69;58.39;101935.88;20906930;28;20101;-64
2023/05/13 08:40:18;;;;;;;2.25;2.05;;;;;;;19.80;58.45;101939.56;20907042;28;20583;-64
2023/05/13 08:50:21;;;;;;;1.77;1.60;;;;;;;19.85;58.28;101932.78;20905807;28;20068;-64
2023/05/13 09:00:23;;;;;;;1.60;1.48;;;;;;;19.91;58.26;101938.72;20904333;28;20045;-64
2023/05/13 09:10:24;;;;;;;1.50;1.40;;;;;;;19.94;58.52;101927.66;20902842;28;20049;-64
2023/05/13 09:20:26;;;;;;;1.83;1.33;;;;;;;19.95;58.59;101935.63;20889034;28;20041;-64
2023/05/13 09:30:31;;;;;;;2.35;1.60;;;;;;;19.97;58.57;101927.41;20902744;28;20583;-64
2023/05/13 09:40:33;;;;;;;1.20;1.10;;;;;;;20.00;58.62;101927.16;20901747;28;20063;-64
2023/05/13 09:50:45;;;;;;;1.73;1.30;;;;;;;20.03;58.58;101915.22;20883896;28;20127;-65
2023/05/13 10:00:47;;;;;;;1.10;1.00;;;;;;;19.97;58.71;101905.78;20900892;28;20691;-64
2023/05/13 10:10:53;;;;;;;1.42;1.17;;;;;;;20.05;58.61;101903.31;20900131;28;20187;-64
2023/05/13 10:20:55;;;;;;;1.25;1.13;;;;;;;20.07;58.62;101901.34;20889697;28;20426;-65
2023/05/13 10:30:56;;;;;;;1.27;1.17;;;;;;;20.08;58.46;101892.25;20915068;28;20060;-64
2023/05/13 10:41:08;;;;;;;2.00;1.20;;;;;;;20.10;58.58;101882.16;20915770;28;20057;-65
2023/05/13 10:51:13;;;;;;;1.13;1.02;;;;;;;20.12;58.75;101877.50;20915137;28;20190;-64
2023/05/13 11:01:15;;;;;;;1.30;1.10;;;;;;;20.13;58.54;101868.38;20913086;28;20517;-64
2023/05/13 11:11:21;;;;;;;1.10;1.00;;;;;;;20.16;58.41;101871.81;20908457;28;20072;-64
2023/05/13 11:21:34;;;;;;;1.05;0.95;;;;;;;20.18;58.47;101864.44;20904497;28;20052;-64
2023/05/13 11:31:51;;;;;;;1.95;0.95;;;;;;;20.19;58.39;101855.34;20912580;28;20493;-65
2023/05/13 11:41:56;;;;;;;0.98;0.90;;;;;;;20.18;58.45;101849.09;20911193;28;20412;-65
2023/05/13 11:52:06;;;;;;;0.97;0.80;;;;;;;20.17;58.42;101838.41;20910632;28;20145;-64
2023/05/13 12:02:08;;;;;;;0.80;0.80;;;;;;;20.17;58.41;101843.81;20910188;28;20505;-65
2023/05/13 12:12:09;;;;;;;0.70;0.68;;;;;;;20.16;58.26;101842.97;20892755;28;20067;-65
2023/05/13 12:22:11;;;;;;;0.90;0.90;;;;;;;20.13;58.44;101835.94;20908189;28;20060;-64
2023/05/13 12:32:15;;;;;;;0.90;0.80;;;;;;;20.13;58.46;101833.25;20906522;28;20049;-64
2023/05/13 12:42:17;;;;;;;1.00;1.00;;;;;;;20.09;58.16;101818.28;20905939;28;20052;-64
2023/05/13 12:52:19;;;;;;;0.90;0.90;;;;;;;20.14;58.30;101826.84;20904323;28;20049;-65
2023/05/13 13:02:20;;;;;;;0.88;0.88;;;;;;;20.14;58.17;101824.16;20905036;28;20106;-64
2023/05/13 13:12:22;;;;;;;0.90;0.82;;;;;;;20.14;58.03;101816.03;20893289;28;20045;-64
2023/05/13 13:22:25;;;;;;;0.90;0.90;;;;;;;20.14;57.93;101816.03;20902123;28;20060;-64
2023/05/13 13:32:26;;;;;;;0.85;0.85;;;;;;;20.13;57.68;101819.72;20902426;28;20057;-64
2023/05/13 13:42:28;;;;;;;0.93;0.90;;;;;;;20.11;57.84;101808.19;20902748;28;20057;-65
2023/05/13 13:52:44;;;;;;;0.80;0.63;;;;;;;20.11;57.68;101800.06;20901665;28;20052;-64
2023/05/13 14:02:45;;;;;;;1.10;1.00;;;;;;;20.10;57.43;101795.66;20900447;28;20045;-65
2023/05/13 14:12:49;;;;;;;1.05;0.98;;;;;;;20.10;57.46;101790.25;20885699;28;20504;-64
2023/05/13 14:22:50;;;;;;;0.88;0.85;;;;;;;20.09;57.56;101777.72;20900078;28;20056;-65
2023/05/13 14:32:52;;;;;;;1.00;0.90;;;;;;;20.08;57.53;101778.72;20899303;28;20041;-64
2023/05/13 14:42:53;;;;;;;1.75;0.73;;;;;;;20.08;57.42;101765.19;20899356;28;20488;-65
2023/05/13 14:52:55;;;;;;;1.00;0.90;;;;;;;20.07;57.26;101755.38;20898672;28;20060;-64
2023/05/13 15:02:56;;;;;;;0.80;0.80;;;;;;;20.05;57.36;101760.06;20898394;28;20107;-65
2023/05/13 15:12:58;;;;;;;0.90;0.90;;;;;;;20.05;57.16;101757.34;20896033;28;20540;-64
2023/05/13 15:23:00;;;;;;;0.95;0.80;;;;;;;20.04;57.20;101752.06;20913768;28;20432;-64
2023/05/13 15:33:02;;;;;;;0.98;0.90;;;;;;;20.03;57.11;101753.91;20912696;28;20053;-64
2023/05/13 15:43:04;;;;;;;0.75;0.75;;;;;;;20.02;57.18;101741.41;20911076;28;20136;-65
2023/05/13 15:53:05;;;;;;;0.95;0.90;;;;;;;20.01;57.03;101734.28;20910690;28;20535;-64
2023/05/13 16:03:07;;;;;;;0.95;0.95;;;;;;;20.03;57.01;101742.25;20909602;28;20049;-64
2023/05/13 16:13:09;;;;;;;0.93;0.70;;;;;;;20.00;57.19;101738.81;20896022;28;20056;-64
2023/05/13 16:23:10;;;;;;;1.38;1.05;;;;;;;20.00;57.19;101737.97;20908270;28;20057;-65
2023/05/13 16:33:14;;;;;;;0.90;0.90;;;;;;;20.00;57.11;101737.97;20907151;28;20063;-64
2023/05/13 16:43:16;;;;;;;1.70;0.90;;;;;;;19.98;57.16;101734.53;20906700;28;20130;-64
2023/05/13 16:53:20;;;;;;;1.35;0.82;;;;;;;19.98;57.32;101729.13;20906233;28;20099;-65
2023/05/13 17:03:22;;;;;;;1.10;0.90;;;;;;;19.98;57.45;101729.13;20896779;28;20067;-64
2023/05/13 17:13:24;;;;;;;0.90;0.90;;;;;;;19.97;57.57;101722.00;20894572;28;20501;-64
2023/05/13 17:23:26;;;;;;;1.02;0.93;;;;;;;19.95;57.71;101729.41;20904371;28;20463;-64
2023/05/13 17:33:27;;;;;;;1.10;1.00;;;;;;;19.93;57.84;101736.78;20901987;28;20378;-65
2023/05/13 17:43:29;;;;;;;1.10;1.00;;;;;;;19.92;57.94;101735.06;20900429;28;20041;-64
2023/05/13 17:53:30;;;;;;;1.55;1.10;;;;;;;19.91;57.86;101733.34;20901799;28;20059;-64
2023/05/13 18:03:36;;;;;;;2.20;1.10;;;;;;;19.89;57.95;101741.53;20889537;28;20524;-64
2023/05/13 18:13:37;;;;;;;1.20;1.10;;;;;;;19.88;57.89;101744.34;20899962;28;20045;-64
2023/05/13 18:23:40;;;;;;;1.30;1.20;;;;;;;19.86;57.93;101758.00;20899730;28;20485;-64
2023/05/13 18:33:42;;;;;;;0.95;0.90;;;;;;;19.84;58.03;101759.97;20900599;28;20505;-64
2023/05/13 18:43:43;;;;;;;1.33;1.20;;;;;;;19.82;58.26;101779.00;20900674;28;20041;-64
2023/05/13 18:53:45;;;;;;;1.35;1.25;;;;;;;19.82;58.42;101788.97;20915281;28;20045;-64
2023/05/13 19:03:47;;;;;;;1.52;1.38;;;;;;;19.76;58.53;101795.72;20900048;28;20045;-64
2023/05/13 19:13:49;;;;;;;1.30;1.20;;;;;;;19.79;58.62;101806.28;20913451;28;20049;-64
2023/05/13 19:23:50;;;;;;;1.58;1.40;;;;;;;19.78;58.69;101807.28;20911436;28;20057;-64
2023/05/13 19:33:52;;;;;;;1.45;1.35;;;;;;;19.76;59.02;101814.66;20912503;28;20139;-64
2023/05/13 19:43:53;;;;;;;2.30;1.75;;;;;;;19.74;59.07;101818.47;20910976;28;20079;-64
2023/05/13 19:53:55;;;;;;;1.35;1.25;;;;;;;19.72;59.11;101810.47;20910043;28;20566;-64
2023/05/13 20:03:58;;;;;;;1.50;1.35;;;;;;;19.64;59.09;101797.59;20900110;28;20052;-64
2023/05/13 20:14:00;;;;;;;2.08;1.70;;;;;;;19.69;59.03;101816.13;20909242;28;20049;-64
2023/05/13 20:24:01;;;;;;;1.92;1.48;;;;;;;19.68;59.14;101804.50;20907846;28;20041;-64
2023/05/13 20:34:03;;;;;;;1.60;1.50;;;;;;;19.66;59.32;101802.88;20889714;28;20053;-64
2023/05/13 20:44:05;;;;;;;3.03;1.50;;;;;;;19.66;59.36;101802.88;20907382;28;20103;-64
2023/05/13 20:54:08;;;;;;;2.05;1.65;;;;;;;19.64;59.39;101791.34;20888121;28;20052;-64
2023/05/13 21:04:12;;;;;;;1.60;1.50;;;;;;;19.55;59.16;101774.94;20891511;28;20516;-64
2023/05/13 21:14:14;;;;;;;1.50;1.40;;;;;;;19.62;59.38;101790.63;20903580;28;20053;-64
2023/05/13 21:24:19;;;;;;;2.22;1.70;;;;;;;19.61;59.25;101792.44;20903490;28;20057;-64
2023/05/13 21:34:21;;;;;;;1.52;1.40;;;;;;;19.59;59.28;101788.19;20902314;28;20054;-64
2023/05/13 21:44:23;;;;;;;1.95;1.50;;;;;;;19.59;59.46;101797.13;20902160;28;20110;-64
2023/05/13 21:54:25;;;;;;;1.88;1.63;;;;;;;19.56;59.33;101790.16;20901814;28;20049;-65
2023/05/13 22:04:28;;;;;;;1.88;1.50;;;;;;;19.56;59.37;101789.28;20884377;28;20060;-64
2023/05/13 22:14:29;;;;;;;3.05;1.63;;;;;;;19.53;59.49;101785.00;20899977;28;20048;-65
2023/05/13 22:24:31;;;;;;;2.10;1.60;;;;;;;19.51;59.46;101784.25;20921699;28;20081;-64
2023/05/13 22:34:33;;;;;;;1.83;1.63;;;;;;;19.51;59.17;101786.09;20909355;28;20053;-64
2023/05/13 22:44:36;;;;;;;2.05;1.85;;;;;;;19.49;59.21;101769.16;20926788;28;20416;-64
2023/05/13 22:54:37;;;;;;;1.73;1.48;;;;;;;19.49;59.28;101766.47;20923695;28;20049;-64
2023/05/13 23:04:39;;;;;;;1.77;1.45;;;;;;;19.47;59.21;101755.78;20918014;28;20055;-64
2023/05/13 23:14:40;;;;;;;2.13;1.52;;;;;;;19.46;59.35;101753.22;20925553;28;20049;-64
2023/05/13 23:24:42;;;;;;;2.20;1.92;;;;;;;19.44;59.36;101747.06;20925119;28;20045;-64
2023/05/13 23:34:44;;;;;;;1.60;1.50;;;;;;;19.43;59.17;101757.00;20916079;28;20072;-64
2023/05/13 23:44:45;;;;;;;1.67;1.42;;;;;;;19.42;59.40;101749.88;20911325;28;20049;-64
2023/05/13 23:54:47;;;;;;;2.33;1.90;;;;;;;19.40;59.64;101735.66;20894182;28;20053;-64
